Time;durP1;ratioP1;P1;durP2;ratioP2;P2;SDS_P1;SDS_P2;PMS_P1;PMS_P2;Temp;Humidity;BMP_temperature;BMP_pressure;BME280_temperature;BME280_humidity;BME280_pressure;Samples;Min_cycle;Max_cycle;Signal;HPM_P1;HPM_P2
2023/07/31 00:02:04;;;;;;;5.77;2.93;;;;;;;17.52;100.00;100304.97;4967778;28;20207;-71
2023/07/31 00:04:31;;;;;;;3.13;1.83;;;;;;;17.53;100.00;100304.94;4966531;28;20221;-72
2023/07/31 00:06:57;;;;;;;3.53;1.73;;;;;;;17.62;100.00;100301.25;4966056;28;20202;-72
2023/07/31 00:09:23;;;;;;;4.43;1.70;;;;;;;17.61;100.00;100301.25;4967054;28;20229;-72
2023/07/31 00:11:50;;;;;;;4.87;2.13;;;;;;;17.59;100.00;100297.72;4969667;28;20701;-72
2023/07/31 00:14:17;;;;;;;7.63;2.13;;;;;;;17.61;100.00;100295.88;4966744;28;20201;-72
2023/07/31 00:16:43;;;;;;;5.17;1.90;;;;;;;17.61;100.00;100303.91;4966808;28;20205;-72
2023/07/31 00:19:09;;;;;;;4.53;1.67;;;;;;;17.54;100.00;100295.09;4967308;28;20229;-71
2023/07/31 00:21:36;;;;;;;9.87;1.93;;;;;;;17.47;100.00;100286.28;4968111;28;20684;-72
2023/07/31 00:24:02;;;;;;;5.03;2.30;;;;;;;17.46;100.00;100280.97;4966285;28;20228;-72
2023/07/31 00:26:29;;;;;;;3.90;1.80;;;;;;;17.45;100.00;100279.19;4966197;28;20801;-72
2023/07/31 00:28:55;;;;;;;4.20;1.90;;;;;;;17.46;100.00;100289.00;4967009;28;20236;-72
2023/07/31 00:31:22;;;;;;;5.27;2.07;;;;;;;17.42;100.00;100281.94;4964453;28;20229;-72
2023/07/31 00:33:48;;;;;;;3.33;2.03;;;;;;;17.39;100.00;100288.22;4968091;28;20209;-72
2023/07/31 00:36:15;;;;;;;3.17;1.90;;;;;;;17.32;100.00;100285.66;4962697;28;20212;-72
2023/07/31 00:38:41;;;;;;;5.27;2.27;;;;;;;17.30;100.00;100285.69;4967390;28;20244;-72
2023/07/31 00:41:10;;;;;;;6.90;1.83;;;;;;;17.26;100.00;100283.97;4968829;28;20202;-72
2023/07/31 00:43:36;;;;;;;5.40;2.00;;;;;;;17.21;100.00;100278.69;4967173;28;20276;-72
2023/07/31 00:46:02;;;;;;;6.93;2.20;;;;;;;17.22;100.00;100279.59;4964221;28;20215;-72
2023/07/31 00:48:29;;;;;;;4.63;2.20;;;;;;;17.07;100.00;100272.66;4965882;28;20592;-72
2023/07/31 00:50:56;;;;;;;6.33;2.30;;;;;;;17.21;100.00;100284.06;4967968;28;20213;-72
2023/07/31 00:53:24;;;;;;;5.03;2.07;;;;;;;17.14;100.00;100282.34;4966900;28;20292;-72
2023/07/31 00:55:52;;;;;;;4.30;1.93;;;;;;;17.15;100.00;100268.06;4962340;28;20291;-72
2023/07/31 00:58:18;;;;;;;6.77;2.10;;;;;;;17.14;100.00;100270.75;4965784;28;20662;-71
2023/07/31 01:00:44;;;;;;;6.30;2.30;;;;;;;17.12;100.00;100272.56;4967285;28;20692;-72
2023/07/31 01:03:11;;;;;;;3.30;1.87;;;;;;;17.13;100.00;100271.66;4967033;28;20244;-72
2023/07/31 01:06:00;;;;;;;9.10;2.10;;;;;;;17.09;100.00;100267.28;4966460;28;20218;-72
2023/07/31 01:08:42;;;;;;;3.57;2.00;;;;;;;16.98;100.00;100271.91;4965854;28;20229;-72
2023/07/31 01:11:28;;;;;;;3.43;1.90;;;;;;;16.91;100.00;100266.66;4962620;28;20236;-72
2023/07/31 01:13:55;;;;;;;6.57;2.23;;;;;;;16.89;100.00;100270.25;4967299;28;20240;-72
2023/07/31 01:16:22;;;;;;;7.67;2.30;;;;;;;16.91;100.00;100271.13;4965963;28;20205;-72
2023/07/31 01:18:48;;;;;;;4.70;2.30;;;;;;;16.96;100.00;100268.38;4969089;28;20225;-72
2023/07/31 01:21:28;;;;;;;2.63;1.87;;;;;;;16.96;100.00;100257.66;4967046;28;20201;-72
2023/07/31 01:24:21;;;;;;;4.13;2.40;;;;;;;17.08;100.00;100262.84;4965679;28;20201;-72
2023/07/31 01:26:53;;;;;;;4.60;2.27;;;;;;;17.06;100.00;100264.66;4963100;28;20205;-72
2023/07/31 01:29:38;;;;;;;4.40;2.10;;;;;;;17.12;100.00;100264.56;4964873;28;20224;-71
2023/07/31 01:32:06;;;;;;;2.87;2.03;;;;;;;17.08;100.00;100263.72;4962496;28;20202;-71
2023/07/31 01:34:33;;;;;;;7.17;2.37;;;;;;;17.07;100.00;100253.03;4968921;28;20204;-71
2023/07/31 01:37:00;;;;;;;4.87;2.03;;;;;;;17.04;100.00;100250.41;4962228;28;20747;-71
2023/07/31 01:39:26;;;;;;;2.33;1.70;;;;;;;17.02;100.00;100239.72;4964141;28;20249;-71
2023/07/31 01:41:53;;;;;;;2.87;1.90;;;;;;;17.02;100.00;100234.38;4967217;28;20208;-71
2023/07/31 01:44:19;;;;;;;3.30;1.97;;;;;;;17.07;100.00;100224.47;4964006;28;20301;-71
2023/07/31 01:46:45;;;;;;;6.23;2.47;;;;;;;17.07;100.00;100223.59;4967718;28;20206;-71
2023/07/31 01:49:13;;;;;;;6.23;2.07;;;;;;;17.17;100.00;100222.53;4968145;28;20309;-71
2023/07/31 01:51:39;;;;;;;6.27;2.20;;;;;;;17.25;100.00;100212.63;4968271;28;20217;-71
2023/07/31 01:54:05;;;;;;;3.60;2.20;;;;;;;17.26;100.00;100214.38;4969567;28;20205;-71
2023/07/31 01:56:32;;;;;;;5.63;2.63;;;;;;;17.35;100.00;100222.25;4967934;28;20217;-71
2023/07/31 01:58:58;;;;;;;5.50;2.00;;;;;;;17.48;100.00;100228.28;4968849;28;20225;-71
2023/07/31 02:01:25;;;;;;;6.17;2.47;;;;;;;17.58;100.00;100227.19;4968288;28;20201;-71
2023/07/31 02:03:51;;;;;;;6.73;2.40;;;;;;;17.72;100.00;100218.97;4967346;28;20206;-71
2023/07/31 02:06:18;;;;;;;8.57;2.20;;;;;;;17.73;100.00;100223.41;4969909;28;20205;-71
2023/07/31 02:08:44;;;;;;;6.17;2.40;;;;;;;17.81;100.00;100213.44;4969174;28;20232;-71
2023/07/31 02:11:11;;;;;;;4.47;2.30;;;;;;;17.86;100.00;100214.22;4969381;28;20305;-71
2023/07/31 02:13:37;;;;;;;5.60;2.03;;;;;;;17.85;100.00;100207.09;4966372;28;20201;-71
2023/07/31 02:16:03;;;;;;;7.23;2.50;;;;;;;17.82;100.00;100205.34;4967615;28;20205;-71
2023/07/31 02:18:30;;;;;;;4.63;1.90;;;;;;;17.82;100.00;100207.16;4967624;28;20206;-71
2023/07/31 02:20:56;;;;;;;4.40;2.07;;;;;;;17.80;100.00;100214.34;4970021;28;20268;-71
2023/07/31 02:23:23;;;;;;;5.30;2.57;;;;;;;17.84;100.00;100221.41;4970826;28;20221;-71
2023/07/31 02:25:49;;;;;;;5.37;2.30;;;;;;;17.89;100.00;100218.63;4968334;28;20333;-71
2023/07/31 02:28:15;;;;;;;5.80;2.40;;;;;;;17.84;100.00;100214.25;4967841;28;20205;-71
2023/07/31 02:30:48;;;;;;;4.47;2.10;;;;;;;17.80;100.00;100204.50;4967326;28;20229;-71
2023/07/31 02:33:15;;;;;;;5.83;2.47;;;;;;;17.85;100.00;100212.44;4969502;28;20228;-71
2023/07/31 02:35:41;;;;;;;8.17;2.60;;;;;;;17.79;100.00;100212.56;4967607;28;20213;-71
2023/07/31 02:38:08;;;;;;;4.77;2.53;;;;;;;17.85;100.00;100217.81;4970602;28;20968;-71
2023/07/31 02:40:34;;;;;;;8.93;2.20;;;;;;;17.74;100.00;100222.50;4966608;28;20237;-71
2023/07/31 02:43:00;;;;;;;6.20;2.03;;;;;;;17.69;100.00;100222.59;4967861;28;20224;-71
2023/07/31 02:45:27;;;;;;;6.70;2.30;;;;;;;17.65;100.00;100225.31;4968206;28;20205;-71
2023/07/31 02:47:53;;;;;;;5.20;2.17;;;;;;;17.70;100.00;100231.50;4965328;28;20197;-71
2023/07/31 02:50:20;;;;;;;5.10;2.23;;;;;;;17.70;100.00;100239.53;4959246;28;20327;-71
2023/07/31 02:52:46;;;;;;;8.80;2.30;;;;;;;17.68;100.00;100236.00;4965330;28;20198;-71
2023/07/31 02:55:13;;;;;;;6.30;2.67;;;;;;;17.58;100.00;100231.66;4967478;28;20221;-71
2023/07/31 02:57:39;;;;;;;4.93;2.10;;;;;;;17.50;100.00;100221.97;4962944;28;20201;-71
2023/07/31 03:00:06;;;;;;;7.17;2.80;;;;;;;17.41;100.00;100221.25;4966909;28;20716;-71
2023/07/31 03:02:33;;;;;;;4.50;2.30;;;;;;;17.31;100.00;100219.66;4968389;28;20229;-72
2023/07/31 03:04:59;;;;;;;6.27;2.37;;;;;;;17.23;100.00;100211.75;4966177;28;20221;-72
2023/07/31 03:07:26;;;;;;;4.30;2.37;;;;;;;17.17;100.00;100222.53;4966723;28;20202;-71
2023/07/31 03:09:52;;;;;;;5.93;2.63;;;;;;;17.13;100.00;100215.47;4966966;28;20228;-71
2023/07/31 03:12:19;;;;;;;5.13;2.23;;;;;;;17.08;100.00;100212.00;4960198;28;20214;-72
2023/07/31 03:14:45;;;;;;;5.50;2.60;;;;;;;17.07;100.00;100208.44;4963322;28;20681;-72
2023/07/31 03:17:12;;;;;;;5.00;2.20;;;;;;;17.01;100.00;100208.53;4969549;28;20206;-72
2023/07/31 03:19:38;;;;;;;7.77;2.40;;;;;;;17.05;100.00;100214.72;4969313;28;20221;-72
2023/07/31 03:22:05;;;;;;;5.30;2.23;;;;;;;17.06;100.00;100212.00;4969449;28;20676;-71
2023/07/31 03:24:31;;;;;;;6.80;2.80;;;;;;;17.06;100.00;100205.78;4965318;28;20697;-71
2023/07/31 03:26:58;;;;;;;4.73;2.43;;;;;;;17.05;100.00;100222.75;4969548;28;20210;-71
2023/07/31 03:29:24;;;;;;;6.23;3.10;;;;;;;17.01;100.00;100219.22;4968585;28;20605;-71
2023/07/31 03:31:50;;;;;;;4.20;2.60;;;;;;;17.00;100.00;100224.59;4966253;28;20304;-71
2023/07/31 03:34:17;;;;;;;7.67;2.57;;;;;;;17.01;100.00;100223.69;4966842;28;20589;-71
2023/07/31 03:36:44;;;;;;;4.80;2.60;;;;;;;17.05;100.00;100225.41;4967077;28;20236;-72
2023/07/31 03:39:10;;;;;;;5.73;2.90;;;;;;;16.95;100.00;100222.00;4968875;28;20308;-71
2023/07/31 03:41:37;;;;;;;6.83;3.17;;;;;;;16.99;100.00;100228.19;4965006;28;20198;-71
2023/07/31 03:44:03;;;;;;;5.30;2.67;;;;;;;17.06;100.00;100221.84;4967068;28;20197;-72
2023/07/31 03:46:29;;;;;;;8.07;2.90;;;;;;;17.13;100.00;100234.19;4965428;28;20585;-71
2023/07/31 03:48:56;;;;;;;4.87;2.30;;;;;;;17.10;100.00;100218.19;4991930;23;20204;-70
2023/07/31 03:51:22;;;;;;;5.43;2.50;;;;;;;17.16;100.00;100228.81;4984061;28;20225;-70
2023/07/31 03:53:49;;;;;;;7.37;2.67;;;;;;;17.26;100.00;100221.53;4986392;28;20232;-70
2023/07/31 03:56:15;;;;;;;5.20;2.60;;;;;;;17.33;100.00;100226.75;4981382;28;20205;-70
2023/07/31 03:58:41;;;;;;;6.13;2.67;;;;;;;17.40;100.00;100217.69;4984854;28;20213;-70
2023/07/31 04:01:08;;;;;;;5.83;2.67;;;;;;;17.42;100.00;100215.00;4982946;28;20219;-69
2023/07/31 04:03:34;;;;;;;7.73;3.10;;;;;;;17.37;100.00;100204.38;4984619;28;20595;-70
2023/07/31 04:06:01;;;;;;;5.90;2.50;;;;;;;17.37;100.00;100200.81;4983842;28;20197;-70
2023/07/31 04:08:27;;;;;;;4.67;2.57;;;;;;;17.40;100.00;100209.66;4999274;28;20215;-70
2023/07/31 04:10:54;;;;;;;3.33;2.43;;;;;;;17.41;100.00;100192.69;4982090;28;20239;-70
2023/07/31 04:13:22;;;;;;;5.40;2.60;;;;;;;17.49;100.00;100200.59;4988515;28;20205;-70
2023/07/31 04:15:50;;;;;;;5.03;2.47;;;;;;;17.47;100.00;100194.38;4984905;28;20688;-70
2023/07/31 04:18:17;;;;;;;4.87;2.53;;;;;;;17.48;100.00;100199.69;4983760;28;20213;-69
2023/07/31 04:20:44;;;;;;;4.90;2.60;;;;;;;17.54;100.00;100196.91;4985138;28;20244;-67
2023/07/31 04:23:10;;;;;;;5.33;2.57;;;;;;;17.49;100.00;100198.78;4985836;28;20216;-70
2023/07/31 04:25:37;;;;;;;6.73;2.90;;;;;;;17.54;100.00;100198.69;4984433;28;20205;-70
2023/07/31 04:28:03;;;;;;;6.33;2.60;;;;;;;17.57;100.00;100198.66;4983474;28;20284;-70
2023/07/31 04:30:30;;;;;;;8.80;2.80;;;;;;;17.59;100.00;100188.78;4984437;28;20264;-70
2023/07/31 04:32:56;;;;;;;7.23;2.60;;;;;;;17.58;100.00;100186.13;4986417;28;20207;-68
2023/07/31 04:35:23;;;;;;;4.00;2.53;;;;;;;17.56;100.00;100186.16;4985999;28;20204;-70
2023/07/31 04:37:49;;;;;;;5.83;2.73;;;;;;;17.59;100.00;100187.91;4982141;28;20211;-71
2023/07/31 04:40:16;;;;;;;8.07;2.63;;;;;;;17.61;100.00;100186.06;4985120;28;20221;-70
2023/07/31 04:42:42;;;;;;;8.53;3.80;;;;;;;17.59;100.00;100182.53;4983859;28;20290;-70
2023/07/31 04:45:09;;;;;;;5.43;2.83;;;;;;;17.54;100.00;100190.66;4986733;28;20669;-70
2023/07/31 04:47:35;;;;;;;4.63;2.33;;;;;;;17.65;100.00;100201.22;4980420;28;20209;-69
2023/07/31 04:50:02;;;;;;;3.77;2.50;;;;;;;17.71;100.00;100204.69;4986352;28;20650;-69
2023/07/31 04:52:28;;;;;;;5.80;2.50;;;;;;;17.76;100.00;100196.56;4984017;28;20228;-70
2023/07/31 04:54:55;;;;;;;7.50;2.57;;;;;;;17.77;100.00;100201.88;4984487;28;20197;-71
2023/07/31 04:57:21;;;;;;;6.07;2.80;;;;;;;17.77;100.00;100204.56;4985283;28;20299;-70
2023/07/31 04:59:48;;;;;;;5.30;2.60;;;;;;;17.77;100.00;100201.88;4985422;28;20772;-70
2023/07/31 05:02:16;;;;;;;6.70;2.90;;;;;;;17.79;100.00;100201.84;4981709;28;20261;-70
2023/07/31 05:04:43;;;;;;;9.00;3.27;;;;;;;17.79;100.00;100199.19;4980811;28;20198;-69
2023/07/31 05:07:09;;;;;;;7.60;2.77;;;;;;;17.82;100.00;100204.47;4982799;28;20676;-70
2023/07/31 05:09:35;;;;;;;10.00;3.70;;;;;;;17.89;100.00;100203.44;4985682;28;20607;-71
2023/07/31 05:12:04;;;;;;;7.13;2.90;;;;;;;17.92;100.00;100200.69;4983996;28;20236;-71
2023/07/31 05:14:30;;;;;;;9.13;2.87;;;;;;;17.90;100.00;100198.97;4983882;28;20211;-71
2023/07/31 05:16:57;;;;;;;7.83;2.87;;;;;;;17.96;100.00;100186.31;4983179;28;20231;-70
2023/07/31 05:19:23;;;;;;;5.80;2.57;;;;;;;18.02;100.00;100186.22;4983796;28;20352;-69
2023/07/31 05:21:50;;;;;;;9.63;3.30;;;;;;;18.15;100.00;100189.53;4982217;28;20555;-66
2023/07/31 05:24:16;;;;;;;8.33;3.10;;;;;;;18.25;100.00;100192.91;4981819;28;20212;-68
2023/07/31 05:26:42;;;;;;;8.57;3.23;;;;;;;18.28;100.00;100195.50;4985953;28;20791;-69
2023/07/31 05:29:09;;;;;;;6.00;2.83;;;;;;;18.31;100.00;100200.81;4985072;28;20236;-69
2023/07/31 05:31:35;;;;;;;5.70;2.77;;;;;;;18.34;100.00;100200.72;4978503;28;20222;-69
2023/07/31 05:34:02;;;;;;;8.53;2.80;;;;;;;18.41;100.00;100191.63;4975324;28;20221;-69
2023/07/31 05:36:28;;;;;;;6.67;2.67;;;;;;;18.56;100.00;100187.75;4979759;28;20213;-65
2023/07/31 05:38:54;;;;;;;6.63;3.07;;;;;;;18.59;100.00;100182.31;4980141;28;20677;-68
2023/07/31 05:41:21;;;;;;;7.50;2.97;;;;;;;18.71;100.00;100193.69;4983715;28;20204;-68
2023/07/31 05:43:47;;;;;;;8.07;2.87;;;;;;;18.78;100.00;100189.94;4966714;28;20240;-69
2023/07/31 05:46:13;;;;;;;8.00;3.10;;;;;;;18.89;100.00;100196.88;4980790;28;20665;-69
2023/07/31 05:48:40;;;;;;;7.47;2.97;;;;;;;18.97;100.00;100186.81;4984547;28;20197;-66
2023/07/31 05:51:07;;;;;;;7.93;3.13;;;;;;;19.08;100.00;100188.31;4984863;28;20227;-67
2023/07/31 05:53:33;;;;;;;5.57;2.83;;;;;;;19.35;100.00;100181.38;4978510;28;20983;-68
2023/07/31 05:55:59;;;;;;;7.27;3.13;;;;;;;19.64;100.00;100169.91;4984138;28;20205;-65
2023/07/31 05:58:26;;;;;;;7.03;2.77;;;;;;;19.90;100.00;100162.91;4980334;28;20223;-68
2023/07/31 06:00:52;;;;;;;5.30;2.85;;;;;;;20.16;100.00;100159.50;4980859;28;20546;-67
2023/07/31 06:03:18;;;;;;;6.15;2.63;;;;;;;20.24;100.00;100161.00;4982820;28;20299;-67
2023/07/31 06:05:45;;;;;;;8.70;3.00;;;;;;;20.31;100.00;100164.41;4983298;28;20208;-67
2023/07/31 06:08:11;;;;;;;6.97;2.70;;;;;;;20.32;100.00;100153.59;4976942;28;20295;-67
2023/07/31 06:10:38;;;;;;;6.28;2.45;;;;;;;20.41;100.00;100162.34;4979232;28;20320;-67
2023/07/31 06:13:05;;;;;;;7.13;2.85;;;;;;;20.57;100.00;100169.03;4982577;28;20212;-67
2023/07/31 06:15:31;;;;;;;8.20;2.55;;;;;;;20.58;100.00;100168.97;4983012;28;20577;-68
2023/07/31 06:17:58;;;;;;;6.10;2.90;;;;;;;20.90;100.00;100165.28;4983659;28;20208;-69
2023/07/31 06:20:25;;;;;;;5.00;2.58;;;;;;;21.10;100.00;100166.41;4986208;28;20275;-66
2023/07/31 06:22:52;;;;;;;6.15;2.65;;;;;;;20.98;100.00;100151.56;4986196;28;20261;-67
2023/07/31 06:25:18;;;;;;;6.18;2.83;;;;;;;21.03;100.00;100156.78;4989410;28;20205;-65
2023/07/31 06:27:44;;;;;;;4.63;2.50;;;;;;;20.88;100.00;100152.81;4988117;28;20216;-67
2023/07/31 06:30:11;;;;;;;6.93;2.75;;;;;;;20.81;100.00;100172.75;4983343;28;20320;-67
2023/07/31 06:32:38;;;;;;;6.78;2.85;;;;;;;20.67;100.00;100164.22;4978276;28;20221;-69
2023/07/31 06:35:05;;;;;;;5.30;2.88;;;;;;;20.54;100.00;100170.00;4980551;28;20700;-67
2023/07/31 06:37:31;;;;;;;5.30;3.05;;;;;;;20.54;100.00;100159.25;4984156;28;20261;-67
2023/07/31 06:39:57;;;;;;;8.23;2.90;;;;;;;20.90;100.00;100164.41;4984992;28;20317;-67
2023/07/31 06:42:24;;;;;;;5.85;2.60;;;;;;;21.29;98.14;100164.03;4989281;28;20216;-65
2023/07/31 06:44:50;;;;;;;6.53;2.70;;;;;;;21.82;91.39;100171.09;4984173;28;20468;-66
2023/07/31 06:47:17;;;;;;;6.32;2.60;;;;;;;22.05;87.46;100167.63;4983710;28;20223;-68
2023/07/31 06:49:43;;;;;;;8.82;2.80;;;;;;;22.19;87.42;100172.47;4982083;28;20264;-69
2023/07/31 06:52:11;;;;;;;6.07;2.70;;;;;;;22.19;77.96;100162.56;4985199;28;20225;-68
2023/07/31 06:54:37;;;;;;;5.30;2.70;;;;;;;22.26;72.10;100168.59;4975558;28;20577;-69
2023/07/31 06:57:04;;;;;;;6.88;2.33;;;;;;;22.42;69.44;100150.03;4969747;28;20201;-68
2023/07/31 06:59:30;;;;;;;6.65;2.72;;;;;;;22.14;70.12;100159.16;4979521;28;20709;-69
2023/07/31 07:01:57;;;;;;;6.82;2.60;;;;;;;22.27;70.18;100154.19;4982363;28;20207;-65
2023/07/31 07:04:23;;;;;;;4.97;2.47;;;;;;;22.36;70.20;100137.63;4980971;28;20294;-70
2023/07/31 07:06:49;;;;;;;7.38;2.70;;;;;;;22.71;68.22;100143.47;4981490;28;20297;-70
2023/07/31 07:09:16;;;;;;;5.85;2.65;;;;;;;23.16;66.75;100146.13;4981381;28;20229;-70
2023/07/31 07:11:42;;;;;;;6.80;2.42;;;;;;;23.78;64.04;100144.38;4983451;28;20308;-71
2023/07/31 07:14:09;;;;;;;6.53;2.53;;;;;;;24.72;61.04;100145.38;4983793;28;21518;-72
2023/07/31 07:16:36;;;;;;;4.60;2.53;;;;;;;25.81;57.57;100154.34;4985358;28;20283;-71
2023/07/31 07:19:03;;;;;;;6.72;2.50;;;;;;;26.14;56.02;100138.97;4987320;28;20291;-71
2023/07/31 07:21:31;;;;;;;4.72;2.60;;;;;;;26.38;55.13;100122.28;4982956;28;20205;-71
2023/07/31 07:23:57;;;;;;;5.90;3.00;;;;;;;26.53;54.67;100107.88;4987079;28;20232;-71
2023/07/31 07:26:23;;;;;;;4.03;2.13;;;;;;;26.15;55.95;100102.72;4977036;28;20209;-70
2023/07/31 07:28:50;;;;;;;4.47;2.53;;;;;;;25.39;57.60;100117.63;4981172;28;20293;-74
2023/07/31 07:31:16;;;;;;;6.20;2.45;;;;;;;24.51;59.89;100122.06;4982058;28;20205;-69
2023/07/31 07:33:43;;;;;;;6.05;2.90;;;;;;;24.01;62.13;100122.56;4987589;28;20201;-73
2023/07/31 07:36:09;;;;;;;5.93;2.65;;;;;;;23.69;62.55;100114.09;4984270;28;20312;-72
2023/07/31 07:38:37;;;;;;;6.35;2.78;;;;;;;23.79;62.62;100108.28;4979420;28;20253;-71
2023/07/31 07:41:03;;;;;;;8.15;2.97;;;;;;;23.93;62.14;100111.22;4978939;28;20276;-71
2023/07/31 07:43:30;;;;;;;5.63;2.70;;;;;;;23.73;61.59;100102.19;4983153;28;20211;-72
2023/07/31 07:45:56;;;;;;;5.88;2.40;;;;;;;23.48;63.21;100103.31;4991564;28;20204;-72
2023/07/31 07:48:24;;;;;;;5.00;2.70;;;;;;;23.02;64.37;100111.59;4987656;28;20205;-72
2023/07/31 07:50:51;;;;;;;4.25;2.60;;;;;;;22.72;65.35;100112.81;4984634;28;20279;-71
2023/07/31 07:53:17;;;;;;;8.65;2.30;;;;;;;22.65;66.15;100108.63;4991314;28;20396;-72
2023/07/31 07:55:44;;;;;;;4.65;2.78;;;;;;;22.46;67.47;100112.06;4975141;28;20228;-71
2023/07/31 07:58:10;;;;;;;6.22;2.58;;;;;;;22.44;67.73;100115.78;4974762;28;20205;-72
2023/07/31 08:00:36;;;;;;;5.70;2.60;;;;;;;22.49;68.13;100105.66;4981608;28;20220;-72
2023/07/31 08:03:03;;;;;;;11.18;3.17;;;;;;;22.48;68.57;100110.19;4973489;28;20247;-72
2023/07/31 08:05:33;;;;;;;6.00;2.58;;;;;;;22.27;68.86;100102.03;4980395;28;20308;-72
2023/07/31 08:08:00;;;;;;;7.22;3.00;;;;;;;22.43;69.12;100103.22;4980850;28;20207;-72
2023/07/31 08:10:26;;;;;;;6.25;3.03;;;;;;;22.64;67.59;100102.34;4978957;28;20228;-69
2023/07/31 08:12:53;;;;;;;7.13;2.50;;;;;;;22.80;66.97;100097.16;4984665;28;20221;-69
2023/07/31 08:15:19;;;;;;;9.00;2.85;;;;;;;22.75;67.53;100099.19;4976915;28;20213;-71
2023/07/31 08:17:46;;;;;;;7.55;2.70;;;;;;;22.73;67.14;100088.44;4980747;28;20299;-72
2023/07/31 08:20:12;;;;;;;6.75;2.67;;;;;;;22.84;67.30;100087.19;4980259;28;20232;-72
2023/07/31 08:22:39;;;;;;;4.47;2.10;;;;;;;23.04;66.17;100092.63;4986967;28;20197;-72
2023/07/31 08:25:06;;;;;;;7.78;2.88;;;;;;;23.13;65.62;100086.81;4980931;28;20236;-71
2023/07/31 08:27:33;;;;;;;7.45;2.63;;;;;;;23.36;65.19;100081.28;4985210;28;20209;-72
2023/07/31 08:29:59;;;;;;;5.80;2.58;;;;;;;23.69;64.03;100078.06;4983942;28;20668;-72
2023/07/31 08:32:25;;;;;;;4.97;2.67;;;;;;;23.85;63.13;100064.72;4981103;28;20299;-72
2023/07/31 08:34:52;;;;;;;6.28;2.60;;;;;;;24.29;62.35;100076.19;4983304;28;20205;-73
2023/07/31 08:37:19;;;;;;;4.20;2.30;;;;;;;24.71;58.44;100078.63;4980117;28;20585;-72
2023/07/31 08:39:45;;;;;;;4.55;2.60;;;;;;;24.53;60.09;100077.72;4982018;28;20705;-71
2023/07/31 08:42:12;;;;;;;4.78;2.22;;;;;;;24.08;60.60;100077.19;4980483;28;20213;-70
2023/07/31 08:44:38;;;;;;;8.35;2.50;;;;;;;24.01;61.23;100074.72;4981036;28;20233;-72
2023/07/31 08:47:05;;;;;;;6.53;2.67;;;;;;;23.93;64.51;100070.63;4980565;28;20205;-72
2023/07/31 08:49:33;;;;;;;4.95;2.15;;;;;;;23.93;66.41;100067.94;4981198;28;20233;-72
2023/07/31 08:51:59;;;;;;;4.25;2.15;;;;;;;24.06;65.73;100077.25;4983485;28;20312;-72
2023/07/31 08:54:30;;;;;;;4.85;2.15;;;;;;;23.94;62.52;100075.09;4984547;28;20292;-71
2023/07/31 08:56:59;;;;;;;6.45;2.65;;;;;;;23.63;63.00;100072.94;4977390;28;20205;-72
2023/07/31 08:59:30;;;;;;;4.85;2.30;;;;;;;23.36;63.43;100065.09;4980803;28;20224;-72
2023/07/31 09:02:00;;;;;;;7.63;2.53;;;;;;;23.25;63.50;100077.31;4981115;28;20202;-72
2023/07/31 09:04:26;;;;;;;4.55;2.17;;;;;;;23.37;63.52;100074.94;4989880;28;20202;-70
2023/07/31 09:06:59;;;;;;;4.25;2.20;;;;;;;23.58;63.29;100064.13;4979292;28;20583;-72
2023/07/31 09:09:25;;;;;;;5.75;2.33;;;;;;;23.89;62.92;100064.50;4978742;28;20595;-72
2023/07/31 09:11:53;;;;;;;7.18;2.42;;;;;;;23.98;61.79;100060.47;4980337;28;20997;-72
2023/07/31 09:14:19;;;;;;;3.72;2.10;;;;;;;24.06;61.62;100058.31;4977736;28;20289;-71
2023/07/31 09:16:57;;;;;;;5.43;2.50;;;;;;;24.18;61.79;100064.97;4987031;28;20197;-73
2023/07/31 09:19:34;;;;;;;6.43;2.40;;;;;;;24.02;63.43;100054.00;4986317;28;20228;-72
2023/07/31 09:22:00;;;;;;;5.95;2.40;;;;;;;23.93;62.21;100057.13;4985263;28;20565;-69
2023/07/31 09:24:32;;;;;;;3.72;2.28;;;;;;;23.75;61.81;100040.81;4982037;28;20291;-72
2023/07/31 09:27:00;;;;;;;6.40;2.60;;;;;;;23.63;62.75;100049.50;4979642;28;20209;-70
2023/07/31 09:29:28;;;;;;;4.30;2.40;;;;;;;23.55;62.73;100057.03;4990391;28;20225;-72
2023/07/31 09:31:55;;;;;;;5.65;2.70;;;;;;;23.70;62.42;100058.19;4981095;28;20204;-72
2023/07/31 09:34:30;;;;;;;5.15;2.53;;;;;;;23.81;61.72;100055.88;4975575;28;20684;-72
2023/07/31 09:37:00;;;;;;;6.65;2.45;;;;;;;23.83;62.57;100043.16;4983461;28;20216;-72
2023/07/31 09:39:27;;;;;;;4.90;2.35;;;;;;;23.80;61.49;100029.78;4984132;28;20606;-72
2023/07/31 09:41:55;;;;;;;4.95;2.35;;;;;;;24.07;60.41;100024.91;4988474;28;20215;-72
2023/07/31 09:44:37;;;;;;;5.85;2.90;;;;;;;24.65;59.15;100022.94;4979779;28;20205;-73
2023/07/31 09:47:03;;;;;;;6.72;2.40;;;;;;;24.92;57.13;100015.25;4984866;28;20211;-72
2023/07/31 09:49:30;;;;;;;6.97;2.50;;;;;;;25.04;56.73;100010.16;5006660;23;20225;-70
2023/07/31 09:51:56;;;;;;;7.10;2.40;;;;;;;24.99;55.97;100015.84;4966148;28;20288;-69
2023/07/31 09:54:22;;;;;;;5.55;2.50;;;;;;;24.98;57.01;100016.78;4965944;28;20217;-69
2023/07/31 09:56:49;;;;;;;6.35;2.60;;;;;;;25.02;56.67;100020.22;4973334;28;20205;-69
2023/07/31 09:59:17;;;;;;;7.10;2.50;;;;;;;25.05;56.52;100023.63;4973294;28;20205;-69
2023/07/31 10:01:49;;;;;;;5.65;2.85;;;;;;;24.68;57.32;100016.47;4970839;28;20202;-68
2023/07/31 10:04:20;;;;;;;4.70;2.45;;;;;;;24.63;58.35;100008.59;4967409;28;20209;-68
2023/07/31 10:06:49;;;;;;;5.53;2.83;;;;;;;24.55;57.75;100005.41;4973494;28;20221;-69
2023/07/31 10:09:18;;;;;;;4.32;2.50;;;;;;;24.46;58.24;100002.28;4971288;28;20206;-69
2023/07/31 10:11:55;;;;;;;6.85;2.47;;;;;;;24.30;57.72;99999.44;4966840;28;20539;-70
2023/07/31 10:14:23;;;;;;;8.48;2.90;;;;;;;24.42;57.79;99997.97;4970637;28;20209;-70
2023/07/31 10:16:51;;;;;;;6.35;2.22;;;;;;;24.79;57.91;99987.00;4973925;28;20268;-70
2023/07/31 10:19:21;;;;;;;5.80;2.90;;;;;;;25.22;56.18;99990.25;4972368;28;20207;-69
2023/07/31 10:21:49;;;;;;;6.30;2.47;;;;;;;25.42;55.82;99983.75;4968146;28;20217;-69
2023/07/31 10:24:16;;;;;;;5.38;2.60;;;;;;;25.63;54.17;99985.28;4967754;28;20571;-70
2023/07/31 10:26:45;;;;;;;6.20;2.40;;;;;;;25.54;53.84;99980.34;4964358;28;20228;-69
2023/07/31 10:29:13;;;;;;;6.70;2.42;;;;;;;25.24;54.48;99991.91;4972547;28;20213;-71
2023/07/31 10:31:40;;;;;;;4.70;3.22;;;;;;;25.10;53.49;99989.03;4971687;28;20206;-70
2023/07/31 10:34:07;;;;;;;6.30;2.65;;;;;;;25.05;54.38;99988.41;4965558;28;20228;-69
2023/07/31 10:36:33;;;;;;;3.92;2.20;;;;;;;24.56;54.78;99999.03;4969868;28;20292;-69
2023/07/31 10:39:04;;;;;;;7.05;2.40;;;;;;;24.58;56.18;99997.13;4969033;28;20232;-69
2023/07/31 10:41:31;;;;;;;8.35;2.72;;;;;;;24.67;54.68;99996.66;4973536;28;20292;-69
2023/07/31 10:43:59;;;;;;;6.78;2.75;;;;;;;24.92;53.55;99993.56;4966100;28;20197;-70
2023/07/31 10:46:28;;;;;;;6.03;2.72;;;;;;;25.21;53.17;99991.16;4962025;28;20726;-69
2023/07/31 10:49:02;;;;;;;4.15;2.25;;;;;;;25.46;52.13;99974.47;4981129;28;20575;-70
2023/07/31 10:51:34;;;;;;;4.65;2.55;;;;;;;25.87;50.87;99972.22;4985404;28;20204;-70
2023/07/31 10:54:11;;;;;;;5.03;2.35;;;;;;;26.17;51.25;99970.47;4961210;28;20222;-69
2023/07/31 10:56:38;;;;;;;4.40;2.45;;;;;;;26.30;51.41;99964.34;4968082;28;20605;-68
2023/07/31 10:59:06;;;;;;;5.05;2.53;;;;;;;26.36;49.08;99964.88;4971898;28;20198;-70
2023/07/31 11:01:53;;;;;;;3.83;2.60;;;;;;;26.65;49.88;99967.72;4969886;28;20228;-69
2023/07/31 11:04:24;;;;;;;5.82;2.90;;;;;;;27.16;48.69;99953.72;4964671;28;20197;-71
2023/07/31 11:07:02;;;;;;;6.10;2.83;;;;;;;27.59;48.19;99953.72;4961982;28;20205;-68
2023/07/31 11:09:31;;;;;;;5.32;2.67;;;;;;;27.71;46.83;99949.41;4971594;28;20225;-69
2023/07/31 11:11:59;;;;;;;5.38;2.75;;;;;;;27.73;47.45;99956.50;4969074;28;20637;-69
2023/07/31 11:14:25;;;;;;;4.82;2.40;;;;;;;27.63;46.73;99951.75;4970028;28;20218;-70
2023/07/31 11:16:52;;;;;;;5.88;2.65;;;;;;;27.55;46.87;99941.31;4964615;28;20237;-70
2023/07/31 11:19:25;;;;;;;5.57;2.72;;;;;;;27.50;47.73;99946.16;4971222;28;20365;-71
2023/07/31 11:21:53;;;;;;;4.45;2.70;;;;;;;27.48;47.99;99943.53;4958078;28;20201;-69
2023/07/31 11:24:20;;;;;;;4.10;2.58;;;;;;;27.61;47.24;99942.75;4967797;28;20217;-70